Time;durP1;ratioP1;P1;durP2;ratioP2;P2;SDS_P1;SDS_P2;PMS_P1;PMS_P2;Temp;Humidity;BMP_temperature;BMP_pressure;BME280_temperature;BME280_humidity;BME280_pressure;Samples;Min_cycle;Max_cycle;Signal;HPM_P1;HPM_P2
2022/10/08 00:00:55;;;;;;;12.68;2.42;;;12.20;99.90;;;;;;5069280;28;20020;-71
2022/10/08 00:03:23;;;;;;;12.23;2.72;;;12.10;99.90;;;;;;5071942;28;20494;-71
2022/10/08 00:06:02;;;;;;;11.65;2.25;;;12.10;99.90;;;;;;5069033;28;20826;-71
2022/10/08 00:08:29;;;;;;;9.48;2.22;;;12.10;99.90;;;;;;5082946;28;20043;-72
2022/10/08 00:10:57;;;;;;;10.98;2.35;;;12.00;99.90;;;;;;5072334;28;20049;-72
2022/10/08 00:13:25;;;;;;;11.45;2.65;;;12.00;99.90;;;;;;5072745;28;20037;-72
2022/10/08 00:15:51;;;;;;;13.45;2.40;;;12.00;99.90;;;;;;5050258;28;20032;-71
2022/10/08 00:18:17;;;;;;;10.15;2.33;;;12.00;99.90;;;;;;5068119;28;20052;-73
2022/10/08 00:20:43;;;;;;;13.95;2.70;;;12.00;99.90;;;;;;5072268;28;20491;-71
2022/10/08 00:23:08;;;;;;;12.93;2.92;;;12.00;99.90;;;;;;5069416;28;20119;-71
2022/10/08 00:25:42;;;;;;;15.30;2.53;;;12.00;99.90;;;;;;5051005;28;20444;-71
2022/10/08 00:28:10;;;;;;;14.65;2.50;;;11.90;99.90;;;;;;5068452;28;20747;-72
2022/10/08 00:30:38;;;;;;;11.23;2.20;;;12.00;99.90;;;;;;5063578;28;20025;-72
2022/10/08 00:33:05;;;;;;;11.18;2.28;;;12.00;99.90;;;;;;5076085;28;20505;-72
2022/10/08 00:35:39;;;;;;;16.05;2.60;;;12.00;99.90;;;;;;5068859;28;20037;-71
2022/10/08 00:38:06;;;;;;;16.80;2.80;;;12.00;99.90;;;;;;5068038;28;20091;-71
2022/10/08 00:40:41;;;;;;;12.02;2.35;;;12.00;99.90;;;;;;5068044;28;20596;-71
2022/10/08 00:43:15;;;;;;;13.60;2.35;;;12.00;99.90;;;;;;5050773;28;20407;-72
2022/10/08 00:45:44;;;;;;;13.18;2.38;;;11.90;99.90;;;;;;5051052;28;20056;-72
2022/10/08 00:48:24;;;;;;;13.82;2.38;;;12.00;99.90;;;;;;5068773;28;20024;-72
2022/10/08 00:50:50;;;;;;;10.05;1.92;;;12.00;99.90;;;;;;5066682;28;20032;-71
2022/10/08 00:53:16;;;;;;;18.20;2.80;;;11.90;99.90;;;;;;5067693;28;20109;-71
2022/10/08 00:55:42;;;;;;;12.20;2.30;;;11.90;99.90;;;;;;5050174;28;20065;-71
2022/10/08 00:58:19;;;;;;;15.20;2.40;;;11.90;99.90;;;;;;5063951;28;20056;-71
2022/10/08 01:00:44;;;;;;;13.20;2.30;;;11.90;99.90;;;;;;5067489;28;20046;-70
2022/10/08 01:03:10;;;;;;;11.80;2.10;;;11.90;99.90;;;;;;5066675;28;20028;-71
2022/10/08 01:06:04;;;;;;;12.70;2.40;;;11.90;99.90;;;;;;5051488;28;20593;-70
2022/10/08 01:08:42;;;;;;;12.02;2.22;;;11.80;99.90;;;;;;5057887;28;20645;-71
2022/10/08 01:11:37;;;;;;;11.32;2.50;;;11.80;99.90;;;;;;5071633;28;20059;-71
2022/10/08 01:14:15;;;;;;;12.23;2.72;;;11.80;99.90;;;;;;5065349;28;20102;-71
2022/10/08 01:16:59;;;;;;;14.85;2.55;;;11.80;99.90;;;;;;5048796;28;20123;-72
2022/10/08 01:20:03;;;;;;;10.20;2.17;;;11.80;99.90;;;;;;5049214;28;20165;-72
2022/10/08 01:23:07;;;;;;;13.23;2.60;;;11.80;99.90;;;;;;5041714;28;20033;-72
2022/10/08 01:25:38;;;;;;;13.52;2.42;;;11.70;99.90;;;;;;5067462;28;20039;-71
2022/10/08 01:28:12;;;;;;;11.95;1.98;;;11.70;99.90;;;;;;5072548;28;20032;-72
2022/10/08 01:31:03;;;;;;;12.85;2.30;;;11.70;99.90;;;;;;5073422;28;20033;-72
2022/10/08 01:34:35;;;;;;;19.42;3.20;;;11.70;99.90;;;;;;5038531;28;20056;-71
2022/10/08 01:37:03;;;;;;;12.27;2.40;;;11.70;99.90;;;;;;4987698;28;20074;-71
2022/10/08 01:39:32;;;;;;;10.20;2.03;;;11.60;99.90;;;;;;5000657;28;20045;-72
2022/10/08 01:42:00;;;;;;;12.88;2.20;;;11.60;99.90;;;;;;5005464;28;20037;-72
2022/10/08 01:44:32;;;;;;;13.57;2.65;;;11.60;99.90;;;;;;5005405;28;20488;-72
2022/10/08 01:47:02;;;;;;;12.70;2.38;;;11.60;99.90;;;;;;5004795;28;20048;-73
2022/10/08 01:49:34;;;;;;;12.65;2.30;;;11.60;99.90;;;;;;5002048;28;20046;-71
2022/10/08 01:52:07;;;;;;;15.32;2.58;;;11.50;99.90;;;;;;4988899;28;20026;-72
2022/10/08 01:54:34;;;;;;;11.90;2.13;;;11.50;99.90;;;;;;4998371;28;20087;-71
2022/10/08 01:57:04;;;;;;;11.75;2.25;;;11.60;99.90;;;;;;5004900;28;20080;-71
2022/10/08 01:59:37;;;;;;;9.95;2.10;;;11.50;99.90;;;;;;4999274;28;20112;-71
2022/10/08 02:02:24;;;;;;;10.70;2.40;;;11.50;99.90;;;;;;4975852;28;20643;-71
2022/10/08 02:04:52;;;;;;;12.82;2.22;;;11.50;99.90;;;;;;4991053;28;20290;-71
2022/10/08 02:07:31;;;;;;;15.32;2.50;;;11.50;99.90;;;;;;5023345;28;20056;-72
2022/10/08 02:10:05;;;;;;;11.50;2.47;;;11.50;99.90;;;;;;5068148;28;20044;-72
2022/10/08 02:12:31;;;;;;;17.80;2.58;;;11.40;99.90;;;;;;5048061;28;20041;-72
2022/10/08 02:14:57;;;;;;;13.50;2.55;;;11.40;99.90;;;;;;5068078;28;20071;-72
2022/10/08 02:17:23;;;;;;;15.45;2.58;;;11.40;99.90;;;;;;5070964;28;20032;-72
2022/10/08 02:19:49;;;;;;;11.38;2.13;;;11.40;99.90;;;;;;5063284;28;20041;-72
2022/10/08 02:22:21;;;;;;;13.60;2.33;;;11.40;99.90;;;;;;5065343;28;20037;-71
2022/10/08 02:25:03;;;;;;;14.82;2.63;;;11.30;99.90;;;;;;5069609;28;20037;-71
2022/10/08 02:27:49;;;;;;;15.77;2.80;;;11.30;99.90;;;;;;5051207;28;20060;-71
2022/10/08 02:30:15;;;;;;;11.48;2.20;;;11.30;99.90;;;;;;5062598;28;20115;-72
2022/10/08 02:32:53;;;;;;;13.07;2.50;;;11.30;99.90;;;;;;5045383;28;20033;-72
2022/10/08 02:35:43;;;;;;;12.82;2.15;;;11.30;99.90;;;;;;5062424;28;20079;-71
2022/10/08 02:38:21;;;;;;;15.95;2.70;;;11.30;99.90;;;;;;5063598;28;20048;-71
2022/10/08 02:40:51;;;;;;;14.57;2.45;;;11.30;99.90;;;;;;5078769;28;20048;-71
2022/10/08 02:43:22;;;;;;;;;;;11.30;99.90;;;;;;5073980;28;20040;-71
2022/10/08 02:45:58;;;;;;;11.77;2.05;;;11.30;99.90;;;;;;5069526;28;19920;-72
2022/10/08 02:48:32;;;;;;;8.95;2.08;;;11.40;99.90;;;;;;5063359;28;20020;-72
2022/10/08 02:51:06;;;;;;;12.85;2.70;;;11.30;99.90;;;;;;5066392;28;20556;-71
2022/10/08 02:53:35;;;;;;;12.35;2.63;;;11.40;99.90;;;;;;5075002;28;20557;-71
2022/10/08 02:56:12;;;;;;;12.57;2.10;;;11.30;99.90;;;;;;5049910;28;20036;-71
2022/10/08 02:58:38;;;;;;;17.13;2.55;;;11.30;99.90;;;;;;5069114;28;20549;-72
2022/10/08 03:01:07;;;;;;;14.70;2.53;;;11.30;99.90;;;;;;5066165;28;20038;-70
2022/10/08 03:03:36;;;;;;;11.50;2.53;;;11.30;99.90;;;;;;5069443;28;20044;-71
2022/10/08 03:06:06;;;;;;;9.02;2.13;;;11.30;99.90;;;;;;5072811;28;20029;-71
2022/10/08 03:08:34;;;;;;;;;;;11.30;99.90;;;;;;5070963;28;20067;-71
2022/10/08 03:11:00;;;;;;;13.45;2.30;;;11.30;99.90;;;;;;5074998;28;20541;-70
2022/10/08 03:13:26;;;;;;;14.73;2.33;;;11.20;99.90;;;;;;5071123;28;20024;-71
2022/10/08 03:15:53;;;;;;;11.77;2.15;;;11.30;99.90;;;;;;5069287;28;20035;-71
2022/10/08 03:18:20;;;;;;;13.95;2.40;;;11.20;99.90;;;;;;5074909;28;20032;-71
2022/10/08 03:20:50;;;;;;;12.77;2.42;;;11.20;99.90;;;;;;5075106;28;20036;-71
2022/10/08 03:23:17;;;;;;;12.23;2.10;;;11.20;99.90;;;;;;5074701;28;20056;-71
2022/10/08 03:25:44;;;;;;;13.38;2.30;;;11.20;99.90;;;;;;5078560;28;20040;-71
2022/10/08 03:28:10;;;;;;;13.80;2.95;;;11.20;99.90;;;;;;5066825;28;20028;-71
2022/10/08 03:30:36;;;;;;;12.30;2.00;;;11.20;99.90;;;;;;5071633;28;20542;-72
2022/10/08 03:33:01;;;;;;;14.20;2.63;;;11.20;99.90;;;;;;5069751;28;20033;-71
2022/10/08 03:35:27;;;;;;;12.80;2.58;;;11.20;99.90;;;;;;5069728;28;20040;-71
2022/10/08 03:37:53;;;;;;;17.40;2.47;;;11.10;99.90;;;;;;5082680;28;20114;-71
2022/10/08 03:40:20;;;;;;;16.73;2.35;;;11.10;99.90;;;;;;5071908;28;20117;-72
2022/10/08 03:42:45;;;;;;;11.35;2.33;;;11.10;99.90;;;;;;5070161;28;20032;-71
2022/10/08 03:45:11;;;;;;;16.27;3.08;;;11.10;99.90;;;;;;5069987;28;20033;-72
2022/10/08 03:47:36;;;;;;;10.73;1.92;;;11.00;99.90;;;;;;5069673;28;20207;-72
2022/10/08 03:50:02;;;;;;;14.25;2.10;;;11.00;99.90;;;;;;5048215;28;20110;-71
2022/10/08 03:52:29;;;;;;;9.68;1.92;;;11.00;99.90;;;;;;5074441;28;20043;-71
2022/10/08 03:54:55;;;;;;;9.98;1.80;;;11.00;99.90;;;;;;5059489;28;20032;-71
2022/10/08 03:57:21;;;;;;;14.63;2.45;;;11.00;99.90;;;;;;5070266;28;20118;-72
2022/10/08 03:59:46;;;;;;;12.63;2.40;;;10.90;99.90;;;;;;5051147;28;20102;-71
2022/10/08 04:02:12;;;;;;;11.65;2.10;;;10.90;99.90;;;;;;5075656;28;20035;-72
2022/10/08 04:04:37;;;;;;;11.88;1.98;;;10.90;99.90;;;;;;5057608;28;20044;-72
2022/10/08 04:07:03;;;;;;;13.10;2.90;;;10.80;99.90;;;;;;5064068;28;20804;-71
2022/10/08 04:09:29;;;;;;;13.18;2.17;;;10.80;99.90;;;;;;5066714;28;20052;-71
2022/10/08 04:11:54;;;;;;;13.68;2.05;;;10.90;99.90;;;;;;5073818;28;20028;-71
2022/10/08 04:14:20;;;;;;;16.02;2.42;;;10.80;99.90;;;;;;5070736;28;20103;-71
2022/10/08 04:16:46;;;;;;;15.02;2.40;;;10.80;99.90;;;;;;5063528;28;20033;-72
2022/10/08 04:19:13;;;;;;;10.70;2.15;;;10.80;99.90;;;;;;5069121;28;20078;-72
2022/10/08 04:21:38;;;;;;;11.45;2.05;;;10.80;99.90;;;;;;5068847;28;20036;-72
2022/10/08 04:24:04;;;;;;;11.48;2.13;;;10.80;99.90;;;;;;5083480;28;20547;-71
2022/10/08 04:26:30;;;;;;;18.63;3.03;;;10.70;99.90;;;;;;5084604;28;20036;-71
2022/10/08 04:28:55;;;;;;;10.48;1.55;;;10.80;99.90;;;;;;5069458;28;20033;-72
2022/10/08 04:31:22;;;;;;;10.45;2.30;;;10.80;99.90;;;;;;5068586;28;20064;-71
2022/10/08 04:33:49;;;;;;;15.15;2.10;;;10.70;99.90;;;;;;5055890;28;20094;-71
2022/10/08 04:36:20;;;;;;;10.75;2.15;;;10.70;99.90;;;;;;5069093;28;20033;-71
2022/10/08 04:38:47;;;;;;;12.38;2.35;;;10.60;99.90;;;;;;5069357;28;20763;-72
2022/10/08 04:41:15;;;;;;;13.90;2.03;;;10.60;99.90;;;;;;5051048;28;20028;-71
2022/10/08 04:43:42;;;;;;;14.00;2.35;;;10.60;99.90;;;;;;5061306;28;20037;-72
2022/10/08 04:46:10;;;;;;;13.25;2.13;;;10.50;99.90;;;;;;5089121;28;20032;-71
2022/10/08 04:48:37;;;;;;;11.48;1.92;;;10.50;99.90;;;;;;5089482;28;20111;-72
2022/10/08 04:51:04;;;;;;;17.83;2.22;;;10.40;99.90;;;;;;5049767;28;20055;-72
2022/10/08 04:53:30;;;;;;;10.82;1.90;;;10.40;99.90;;;;;;5046015;28;20040;-71
2022/10/08 04:55:56;;;;;;;15.02;2.20;;;10.40;99.90;;;;;;5070864;28;20437;-71
2022/10/08 04:58:24;;;;;;;13.57;2.30;;;10.40;99.90;;;;;;5081381;28;20056;-72
2022/10/08 05:00:50;;;;;;;13.90;2.88;;;10.30;99.90;;;;;;5075239;28;20607;-72
2022/10/08 05:03:16;;;;;;;15.88;2.55;;;10.30;99.90;;;;;;5071487;28;20039;-72
2022/10/08 05:05:44;;;;;;;17.35;2.45;;;10.30;99.90;;;;;;5068425;28;20040;-71
2022/10/08 05:08:11;;;;;;;10.65;2.25;;;10.30;99.90;;;;;;5068299;28;20074;-72
2022/10/08 05:10:36;;;;;;;10.27;1.88;;;10.30;99.90;;;;;;5080602;28;20050;-71
2022/10/08 05:13:02;;;;;;;10.32;2.08;;;10.20;99.90;;;;;;5085304;28;20032;-71
2022/10/08 05:15:30;;;;;;;15.05;1.90;;;10.20;99.90;;;;;;5048901;28;20525;-71
2022/10/08 05:17:55;;;;;;;10.27;2.10;;;10.20;99.90;;;;;;5071863;28;20036;-72
2022/10/08 05:20:21;;;;;;;15.60;2.60;;;10.20;99.90;;;;;;5074102;28;20122;-72
2022/10/08 05:22:47;;;;;;;14.50;2.40;;;10.10;99.90;;;;;;5069240;28;20414;-71
2022/10/08 05:25:13;;;;;;;13.48;2.10;;;10.10;99.90;;;;;;5075418;28;20149;-72
2022/10/08 05:27:38;;;;;;;11.18;2.50;;;10.00;99.90;;;;;;5068362;28;20115;-71
2022/10/08 05:30:05;;;;;;;13.30;2.22;;;9.90;99.90;;;;;;5068179;28;20376;-72
2022/10/08 05:32:30;;;;;;;7.75;1.90;;;9.80;99.90;;;;;;5068120;28;20032;-71
2022/10/08 05:34:56;;;;;;;14.10;2.50;;;9.80;99.90;;;;;;5067895;28;20765;-71
2022/10/08 05:37:21;;;;;;;10.40;2.03;;;9.80;99.90;;;;;;5068609;28;20060;-73
2022/10/08 05:39:47;;;;;;;12.88;2.17;;;9.70;99.90;;;;;;5072809;28;20039;-72
2022/10/08 05:42:13;;;;;;;15.57;2.20;;;9.70;99.90;;;;;;5070230;28;20028;-72
2022/10/08 05:44:39;;;;;;;8.77;2.13;;;9.50;99.90;;;;;;5086978;28;20114;-72
2022/10/08 05:47:05;;;;;;;10.27;2.10;;;9.40;99.90;;;;;;5082636;28;20044;-72
2022/10/08 05:49:31;;;;;;;11.50;2.40;;;9.40;99.90;;;;;;5067797;28;20044;-72
2022/10/08 05:51:57;;;;;;;14.30;2.88;;;9.40;99.90;;;;;;5066908;28;20043;-72
2022/10/08 05:54:23;;;;;;;14.27;2.63;;;9.50;99.90;;;;;;5067152;28;20111;-72
2022/10/08 05:56:49;;;;;;;10.45;2.10;;;9.40;99.90;;;;;;5067440;28;20201;-73
2022/10/08 05:59:18;;;;;;;11.93;2.78;;;9.40;99.90;;;;;;5067515;28;20077;-72
2022/10/08 06:01:44;;;;;;;9.93;2.20;;;9.30;99.90;;;;;;5051497;28;20029;-72
2022/10/08 06:04:10;;;;;;;13.52;2.40;;;9.40;99.90;;;;;;5064812;28;20505;-72
2022/10/08 06:06:37;;;;;;;11.00;2.20;;;9.40;99.90;;;;;;5048699;28;20483;-72
2022/10/08 06:09:04;;;;;;;8.57;2.25;;;9.40;99.90;;;;;;5064604;28;20036;-72
2022/10/08 06:11:32;;;;;;;9.10;2.22;;;9.40;99.90;;;;;;5064541;28;20041;-73
2022/10/08 06:14:00;;;;;;;10.73;2.40;;;9.30;99.90;;;;;;5062797;28;20029;-72
2022/10/08 06:16:26;;;;;;;11.45;2.40;;;9.40;99.90;;;;;;5062108;28;20107;-72
2022/10/08 06:18:52;;;;;;;13.60;2.53;;;9.30;99.90;;;;;;5055319;28;20021;-72
2022/10/08 06:21:20;;;;;;;11.00;2.65;;;9.20;99.90;;;;;;5069557;28;20040;-72
2022/10/08 06:23:51;;;;;;;13.57;2.60;;;9.20;99.90;;;;;;5043631;28;20032;-72
2022/10/08 06:26:18;;;;;;;10.68;2.20;;;9.20;99.90;;;;;;5037387;28;20498;-72
2022/10/08 06:28:44;;;;;;;14.02;2.78;;;9.10;99.90;;;;;;5059109;28;20054;-72
2022/10/08 06:31:10;;;;;;;9.40;2.40;;;9.20;99.90;;;;;;5064645;28;20151;-72
2022/10/08 06:33:35;;;;;;;13.30;2.80;;;9.20;99.90;;;;;;5048284;28;20032;-72
2022/10/08 06:36:03;;;;;;;11.27;2.58;;;9.20;99.90;;;;;;5066019;28;20448;-72
2022/10/08 06:38:29;;;;;;;11.68;2.17;;;9.20;99.90;;;;;;5052699;28;20063;-72
2022/10/08 06:40:58;;;;;;;9.48;2.10;;;9.20;99.90;;;;;;5074808;28;20046;-72
2022/10/08 06:43:23;;;;;;;12.25;2.53;;;9.10;99.90;;;;;;5050128;28;20029;-72
2022/10/08 06:45:49;;;;;;;9.95;2.28;;;9.10;99.90;;;;;;5051631;28;20079;-72
2022/10/08 06:48:15;;;;;;;11.55;2.40;;;9.10;99.90;;;;;;5065828;28;20475;-72
2022/10/08 06:50:40;;;;;;;12.13;2.50;;;9.10;99.90;;;;;;5071222;28;20116;-72
2022/10/08 06:53:08;;;;;;;11.68;2.13;;;9.10;99.90;;;;;;5067758;28;20127;-72
2022/10/08 06:55:34;;;;;;;7.55;2.10;;;9.10;99.90;;;;;;5048091;28;20413;-72
2022/10/08 06:58:02;;;;;;;10.90;2.20;;;9.10;99.90;;;;;;5066625;28;20033;-72
2022/10/08 07:00:28;;;;;;;13.40;2.92;;;9.10;99.90;;;;;;5041662;28;20048;-72
2022/10/08 07:02:55;;;;;;;11.98;2.35;;;9.10;99.90;;;;;;5038589;28;20040;-72
2022/10/08 07:05:21;;;;;;;6.80;1.95;;;9.10;99.90;;;;;;5050039;28;20024;-73
2022/10/08 07:07:47;;;;;;;7.88;2.05;;;9.10;99.90;;;;;;5060434;28;20033;-73
2022/10/08 07:10:12;;;;;;;12.23;2.65;;;9.10;99.90;;;;;;5063708;28;20056;-73
2022/10/08 07:12:38;;;;;;;5.35;2.30;;;9.20;99.90;;;;;;5070340;28;20468;-73
2022/10/08 07:15:04;;;;;;;8.52;2.38;;;9.30;99.90;;;;;;5065845;28;20741;-72
2022/10/08 07:17:29;;;;;;;9.90;2.10;;;9.40;99.90;;;;;;5063815;28;20410;-73
2022/10/08 07:19:55;;;;;;;7.75;2.30;;;9.40;99.90;;;;;;5069858;28;20033;-72
2022/10/08 07:22:22;;;;;;;7.38;1.73;;;9.40;99.90;;;;;;5054398;28;20047;-72
2022/10/08 07:24:47;;;;;;;9.55;2.38;;;9.50;99.90;;;;;;5047984;28;20041;-72
2022/10/08 07:27:13;;;;;;;10.00;2.00;;;9.60;99.90;;;;;;5051813;28;20033;-72
2022/10/08 07:29:39;;;;;;;9.43;1.98;;;9.70;99.90;;;;;;5036084;28;20037;-72
2022/10/08 07:32:05;;;;;;;10.50;2.45;;;9.80;99.90;;;;;;5059427;28;20031;-72
2022/10/08 07:34:30;;;;;;;10.05;1.85;;;10.00;99.90;;;;;;5069463;28;20162;-73
2022/10/08 07:36:56;;;;;;;10.05;1.88;;;10.00;99.90;;;;;;5070949;28;20040;-72
2022/10/08 07:39:22;;;;;;;10.68;1.95;;;10.20;99.90;;;;;;5055298;28;20403;-72
2022/10/08 07:41:48;;;;;;;9.70;1.83;;;10.20;99.90;;;;;;5052004;28;20032;-72
2022/10/08 07:44:15;;;;;;;9.65;1.90;;;10.40;99.90;;;;;;5069229;28;20040;-72
2022/10/08 07:46:49;;;;;;;8.98;1.52;;;10.50;99.90;;;;;;5071583;28;20478;-72
2022/10/08 07:49:16;;;;;;;8.70;2.17;;;10.60;99.90;;;;;;5067268;28;20029;-72
2022/10/08 07:51:42;;;;;;;10.68;2.10;;;10.70;99.90;;;;;;5056296;28;20472;-72
2022/10/08 07:54:12;;;;;;;9.00;2.10;;;10.90;99.90;;;;;;5061715;28;20032;-72
2022/10/08 07:56:38;;;;;;;11.27;2.05;;;11.00;99.90;;;;;;5066027;28;20071;-72
2022/10/08 07:59:04;;;;;;;16.05;2.50;;;11.10;99.90;;;;;;5065680;28;20039;-72
2022/10/08 08:01:32;;;;;;;12.32;2.35;;;11.20;99.90;;;;;;5068989;28;20037;-72
2022/10/08 08:04:06;;;;;;;9.52;2.10;;;11.30;99.90;;;;;;5047246;28;20032;-72
2022/10/08 08:06:33;;;;;;;10.02;2.08;;;11.40;99.90;;;;;;5057427;28;20119;-72
2022/10/08 08:09:00;;;;;;;8.07;1.60;;;11.50;99.90;;;;;;5060403;28;20791;-72
2022/10/08 08:11:26;;;;;;;9.98;1.80;;;11.60;99.90;;;;;;5038735;28;20089;-72
2022/10/08 08:13:52;;;;;;;9.85;2.20;;;11.70;99.90;;;;;;5060778;28;20036;-72
2022/10/08 08:16:20;;;;;;;8.02;1.70;;;11.80;99.90;;;;;;5070234;28;20495;-72
2022/10/08 08:18:48;;;;;;;9.10;1.60;;;11.90;99.90;;;;;;5070336;28;20036;-72
2022/10/08 08:21:17;;;;;;;8.38;1.65;;;12.00;99.90;;;;;;5050899;28;20032;-73
2022/10/08 08:23:46;;;;;;;6.80;1.40;;;12.00;99.90;;;;;;5061011;28;20036;-72
2022/10/08 08:26:24;;;;;;;5.80;1.85;;;12.20;99.90;;;;;;5056795;28;20020;-72
2022/10/08 08:29:23;;;;;;;11.75;1.77;;;12.30;99.90;;;;;;5048910;28;20052;-72
2022/10/08 08:31:49;;;;;;;8.35;1.73;;;12.40;99.90;;;;;;5044925;28;20041;-73
2022/10/08 08:34:17;;;;;;;9.38;1.95;;;12.50;99.90;;;;;;5068236;28;20119;-72
2022/10/08 08:36:45;;;;;;;8.52;1.70;;;12.60;99.90;;;;;;5069623;28;20546;-72
2022/10/08 08:39:18;;;;;;;10.95;1.50;;;12.70;99.90;;;;;;5065925;28;20156;-73
2022/10/08 08:42:11;;;;;;;7.78;1.98;;;12.80;99.90;;;;;;5067013;28;20033;-72
2022/10/08 08:44:40;;;;;;;8.80;1.55;;;12.90;99.90;;;;;;5071402;28;20037;-72
2022/10/08 08:47:11;;;;;;;6.35;1.38;;;13.00;99.90;;;;;;5055650;28;20127;-72
2022/10/08 08:50:01;;;;;;;8.10;1.20;;;13.20;99.90;;;;;;5068134;28;20103;-72
2022/10/08 08:52:32;;;;;;;6.78;1.20;;;13.30;99.90;;;;;;5067098;28;20032;-72
2022/10/08 08:54:59;;;;;;;12.48;1.52;;;13.30;99.90;;;;;;5051180;28;20043;-72
2022/10/08 08:57:40;;;;;;;7.78;1.20;;;13.40;99.90;;;;;;5073630;28;20024;-72
2022/10/08 09:00:21;;;;;;;9.18;1.42;;;13.40;99.90;;;;;;5065136;28;20033;-72
2022/10/08 09:03:00;;;;;;;8.65;1.75;;;13.50;99.90;;;;;;5050620;28;20024;-72
2022/10/08 09:05:30;;;;;;;7.57;1.20;;;13.50;99.90;;;;;;5060120;28;20028;-72
2022/10/08 09:08:14;;;;;;;7.28;1.25;;;13.60;99.90;;;;;;5064115;28;20077;-72
2022/10/08 09:10:57;;;;;;;8.00;1.60;;;13.60;99.90;;;;;;5036248;28;20147;-72
2022/10/08 09:13:51;;;;;;;11.68;1.88;;;13.70;99.90;;;;;;5038705;28;20036;-72
2022/10/08 09:16:17;;;;;;;11.88;1.70;;;13.80;99.90;;;;;;5037869;28;20062;-72
2022/10/08 09:18:46;;;;;;;8.05;1.40;;;13.80;99.90;;;;;;5066773;28;20464;-72
2022/10/08 09:21:12;;;;;;;5.43;1.02;;;13.90;99.90;;;;;;5067238;28;20028;-72
2022/10/08 09:23:37;;;;;;;8.00;1.63;;;13.90;99.90;;;;;;5067601;28;20394;-72
2022/10/08 09:26:20;;;;;;;6.15;1.42;;;14.00;99.90;;;;;;5070216;28;20032;-72
2022/10/08 09:28:51;;;;;;;8.40;1.10;;;14.10;99.90;;;;;;5058432;28;20031;-72
2022/10/08 09:31:40;;;;;;;9.30;1.98;;;14.10;99.90;;;;;;5047574;28;20040;-72
2022/10/08 09:34:12;;;;;;;9.25;1.25;;;14.10;99.90;;;;;;5061275;28;20050;-73
2022/10/08 09:36:40;;;;;;;6.68;1.65;;;14.30;99.90;;;;;;5046509;28;20453;-71
2022/10/08 09:39:25;;;;;;;8.77;1.45;;;14.50;99.90;;;;;;5055527;28;20037;-71
2022/10/08 09:42:06;;;;;;;9.88;1.52;;;14.60;99.90;;;;;;5068220;28;20740;-71
2022/10/08 09:44:50;;;;;;;10.18;1.67;;;14.90;99.90;;;;;;5066183;28;20461;-71
2022/10/08 09:47:21;;;;;;;10.80;1.63;;;15.10;99.90;;;;;;5068550;28;20024;-72
2022/10/08 09:50:05;;;;;;;11.48;1.40;;;15.10;99.90;;;;;;5068382;28;20062;-71
2022/10/08 09:52:33;;;;;;;8.23;1.60;;;15.20;99.90;;;;;;5055010;28;20048;-71
2022/10/08 09:55:15;;;;;;;8.77;1.52;;;15.30;98.80;;;;;;5029806;28;20044;-71
2022/10/08 09:57:47;;;;;;;7.68;1.40;;;15.30;99.50;;;;;;5062968;28;20116;-72
2022/10/08 10:00:34;;;;;;;8.02;1.60;;;15.50;99.00;;;;;;5067454;28;20039;-71
2022/10/08 10:03:02;;;;;;;8.75;1.45;;;15.50;98.80;;;;;;5048128;28;20059;-72
2022/10/08 10:05:31;;;;;;;6.40;1.15;;;15.60;97.70;;;;;;5048095;28;20047;-71
2022/10/08 10:07:57;;;;;;;11.60;1.80;;;15.60;97.60;;;;;;5030355;28;20047;-72
2022/10/08 10:10:40;;;;;;;9.20;1.48;;;15.60;96.50;;;;;;5029831;28;20144;-72
2022/10/08 10:13:16;;;;;;;8.85;1.70;;;15.60;96.60;;;;;;5047990;28;20108;-71
2022/10/08 10:15:52;;;;;;;7.35;1.42;;;15.60;96.50;;;;;;5048152;28;20029;-71
2022/10/08 10:18:22;;;;;;;6.97;1.35;;;15.60;96.60;;;;;;5048362;28;20036;-71
2022/10/08 10:20:53;;;;;;;7.85;1.30;;;15.70;95.60;;;;;;5048280;28;20063;-71
2022/10/08 10:23:30;;;;;;;9.23;1.90;;;15.90;96.20;;;;;;5048041;28;20082;-72
2022/10/08 10:26:02;;;;;;;8.65;1.40;;;15.90;94.60;;;;;;5034602;28;20106;-72
2022/10/08 10:28:39;;;;;;;9.45;1.58;;;16.00;95.50;;;;;;5029550;28;20078;-72
2022/10/08 10:31:04;;;;;;;6.20;1.23;;;16.10;95.60;;;;;;5066270;28;20032;-73
2022/10/08 10:34:01;;;;;;;7.63;1.67;;;16.40;94.50;;;;;;5064484;28;20043;-73
2022/10/08 10:36:33;;;;;;;8.85;1.60;;;16.70;93.10;;;;;;5046477;28;20131;-72
2022/10/08 10:39:24;;;;;;;11.05;1.92;;;17.60;89.20;;;;;;5046853;28;20048;-72
2022/10/08 10:42:14;;;;;;;9.50;1.55;;;18.30;82.70;;;;;;5047671;28;20047;-73
2022/10/08 10:44:42;;;;;;;5.90;1.23;;;18.50;79.70;;;;;;5049436;28;20490;-72
2022/10/08 10:47:09;;;;;;;6.93;1.45;;;19.50;76.70;;;;;;5060185;28;20028;-72
2022/10/08 10:49:39;;;;;;;4.95;1.40;;;20.20;69.20;;;;;;5068045;28;20032;-72
2022/10/08 10:52:23;;;;;;;10.18;1.33;;;20.00;68.90;;;;;;5046052;28;20031;-72
2022/10/08 10:55:02;;;;;;;9.48;1.65;;;19.50;69.50;;;;;;5047745;28;20029;-72
2022/10/08 10:57:53;;;;;;;7.53;1.55;;;19.80;69.20;;;;;;5029602;28;20372;-73
2022/10/08 11:00:43;;;;;;;7.57;1.70;;;19.80;66.90;;;;;;5047614;28;20132;-72
2022/10/08 11:03:33;;;;;;;8.50;1.50;;;18.90;69.50;;;;;;5047564;28;20733;-73
2022/10/08 11:06:36;;;;;;;7.68;1.42;;;18.20;69.60;;;;;;5029546;28;20033;-72
2022/10/08 11:09:16;;;;;;;9.48;1.25;;;17.60;71.30;;;;;;4985183;28;20034;-72
2022/10/08 11:12:03;;;;;;;5.78;1.20;;;17.40;74.70;;;;;;4989901;28;20049;-72
2022/10/08 11:15:05;;;;;;;10.80;1.50;;;17.20;74.70;;;;;;4985043;28;20053;-72
2022/10/08 11:18:05;;;;;;;7.45;1.25;;;17.00;73.20;;;;;;4995533;28;20045;-72
2022/10/08 11:20:53;;;;;;;7.20;1.50;;;16.80;74.20;;;;;;5003074;28;20129;-73
2022/10/08 11:24:01;;;;;;;11.88;1.98;;;16.80;75.70;;;;;;5006629;28;20634;-72
2022/10/08 11:26:45;;;;;;;8.35;1.63;;;17.10;74.60;;;;;;5008230;28;20481;-72
2022/10/08 11:29:33;;;;;;;6.53;1.45;;;17.30;74.50;;;;;;5006275;28;20119;-73
2022/10/08 11:31:59;;;;;;;8.18;1.50;;;17.10;75.40;;;;;;5006250;28;20037;-73
2022/10/08 11:34:36;;;;;;;6.68;1.55;;;17.00;74.90;;;;;;5008287;28;20802;-72
2022/10/08 11:37:09;;;;;;;8.90;1.77;;;16.80;77.30;;;;;;5008473;28;20066;-72
2022/10/08 11:39:56;;;;;;;8.68;1.38;;;16.80;79.20;;;;;;4998224;28;20064;-72
2022/10/08 11:42:33;;;;;;;9.43;1.67;;;16.90;79.80;;;;;;5005883;28;20053;-71
2022/10/08 11:45:24;;;;;;;8.07;1.60;;;16.90;78.20;;;;;;4999511;28;20385;-72
2022/10/08 11:47:54;;;;;;;8.55;1.63;;;16.90;76.30;;;;;;5063407;28;20526;-71
2022/10/08 11:50:27;;;;;;;9.30;1.85;;;16.80;75.20;;;;;;5069180;28;20086;-71
2022/10/08 11:52:58;;;;;;;7.32;1.40;;;16.70;77.70;;;;;;5048145;28;20413;-72
2022/10/08 11:55:30;;;;;;;9.80;1.92;;;16.80;79.50;;;;;;5047316;28;20036;-72
2022/10/08 11:58:02;;;;;;;9.02;1.65;;;16.90;78.30;;;;;;5050807;28;20082;-72
2022/10/08 12:00:33;;;;;;;6.57;1.35;;;17.00;76.80;;;;;;5070423;28;20044;-71
2022/10/08 12:02:59;;;;;;;7.68;1.60;;;17.00;77.20;;;;;;5053614;28;20035;-72
2022/10/08 12:05:42;;;;;;;7.60;1.40;;;17.10;75.10;;;;;;5050434;28;20032;-71
2022/10/08 12:08:08;;;;;;;8.07;1.50;;;17.10;77.30;;;;;;5032155;28;20033;-72
2022/10/08 12:10:33;;;;;;;7.72;1.67;;;17.20;76.40;;;;;;5050162;28;20098;-72
2022/10/08 12:13:23;;;;;;;7.40;1.48;;;17.10;77.10;;;;;;5050175;28;20115;-72
2022/10/08 12:15:51;;;;;;;8.10;1.65;;;17.00;77.40;;;;;;5050476;28;20045;-70
2022/10/08 12:18:21;;;;;;;8.23;1.42;;;17.10;77.00;;;;;;5050013;28;20453;-71
2022/10/08 12:21:06;;;;;;;;;;;17.10;74.80;;;;;;5050384;28;20044;-70
2022/10/08 12:23:33;;;;;;;4.78;1.40;;;17.10;74.70;;;;;;5036478;28;19935;-72
2022/10/08 12:25:58;;;;;;;8.70;1.50;;;17.20;73.70;;;;;;5058308;28;20044;-70
2022/10/08 12:28:27;;;;;;;8.40;1.38;;;17.10;72.70;;;;;;5067313;28;20024;-70
2022/10/08 12:30:59;;;;;;;5.82;1.25;;;16.80;73.60;;;;;;5050339;28;20650;-71
2022/10/08 12:33:25;;;;;;;9.18;1.80;;;16.70;75.60;;;;;;5052125;28;20029;-71
2022/10/08 12:36:09;;;;;;;8.10;1.48;;;16.70;75.80;;;;;;5051481;28;20036;-71
2022/10/08 12:38:53;;;;;;;8.15;1.58;;;16.80;74.40;;;;;;5051160;28;20445;-72
2022/10/08 12:41:37;;;;;;;8.95;1.45;;;17.30;72.90;;;;;;5069388;28;20379;-71
2022/10/08 12:44:25;;;;;;;6.30;1.10;;;18.00;68.80;;;;;;5069259;28;20447;-72
2022/10/08 12:47:12;;;;;;;8.73;1.67;;;17.90;66.80;;;;;;5068931;28;20853;-71
2022/10/08 12:49:40;;;;;;;4.85;1.30;;;17.50;70.60;;;;;;5069153;28;20040;-71
2022/10/08 12:52:10;;;;;;;6.85;1.52;;;17.40;71.80;;;;;;5068271;28;20035;-71
2022/10/08 12:54:45;;;;;;;7.55;1.38;;;17.40;70.00;;;;;;5068204;28;20456;-72
2022/10/08 12:57:12;;;;;;;8.90;1.50;;;17.30;71.10;;;;;;5068834;28;20038;-71
2022/10/08 12:59:40;;;;;;;7.97;1.10;;;17.20;71.40;;;;;;5068688;28;20502;-72
2022/10/08 13:02:24;;;;;;;5.57;1.10;;;17.20;70.80;;;;;;5059752;28;20119;-73
2022/10/08 13:04:50;;;;;;;7.03;1.10;;;17.20;71.00;;;;;;5047529;28;20111;-72
2022/10/08 13:07:30;;;;;;;5.47;1.00;;;17.20;69.70;;;;;;5048674;28;20029;-72